New Town, North Dakota
Current Conditions -  °F | °C
As of 7:15 AM on Saturday 25 Oct 2014 (Local Time) from K08D Reporting Station
NA  
Wind Chill: 26°   Ceiling: NA
Heat Index: 32°   Visibility: 10mi
Dew Point: 28°   Wind: 6mph
Humidity: 87%   Direction: 220°SW
Pressure: 30.11"   Gusts: NA
Location:  47.98°N, 102.49°W
Report Text: K08D 251215Z AUTO 22005KT 10SM 00/M02 A3011 RMK AO2
Loading
Personal Weather Stations






























Interactive Weather Map
Tropical Storm Tracking
New forecast layout! Learn more

10-Day Weather Forecast

Advertisements
Track Severe Weather on mobile